Time;durP1;ratioP1;P1;durP2;ratioP2;P2;SDS_P1;SDS_P2;PMS_P1;PMS_P2;Temp;Humidity;BMP_temperature;BMP_pressure;BME280_temperature;BME280_humidity;BME280_pressure;Samples;Min_cycle;Max_cycle;Signal;HPM_P1;HPM_P2
2021/07/14 00:00:22;;;;;;;3.45;2.10;;;11.00;99.90;;;;;;5095191;28;20376;-93
2021/07/14 00:03:19;;;;;;;3.10;1.97;;;11.00;99.90;;;;;;5059162;28;20412;-92
2021/07/14 00:05:48;;;;;;;2.60;2.00;;;11.00;99.90;;;;;;5066516;28;20438;-95
2021/07/14 00:08:18;;;;;;;2.28;1.50;;;11.00;99.90;;;;;;5094373;28;20418;-91
2021/07/14 00:10:46;;;;;;;2.40;1.60;;;11.10;99.90;;;;;;5095217;28;20454;-94
2021/07/14 00:13:27;;;;;;;2.83;1.80;;;11.30;99.90;;;;;;5090813;28;20398;-91
2021/07/14 00:23:40;;;;;;;4.38;1.90;;;12.10;99.90;;;;;;5092240;28;20921;-93
2021/07/14 00:26:08;;;;;;;2.72;1.52;;;12.30;99.90;;;;;;5095837;28;20457;-93
2021/07/14 00:28:36;;;;;;;2.15;1.50;;;12.30;99.90;;;;;;5094560;28;20392;-88
2021/07/14 00:31:05;;;;;;;3.00;2.03;;;12.40;99.90;;;;;;5081469;28;20518;-91
2021/07/14 00:33:32;;;;;;;2.60;1.90;;;12.50;99.90;;;;;;5082661;28;20390;-88
2021/07/14 00:35:59;;;;;;;2.35;1.67;;;12.60;99.90;;;;;;5074306;28;20412;-89
2021/07/14 00:38:26;;;;;;;2.08;1.58;;;12.70;99.90;;;;;;5074693;28;20768;-92
2021/07/14 00:40:53;;;;;;;2.35;1.50;;;12.80;99.90;;;;;;5077386;28;20381;-89
2021/07/14 00:43:20;;;;;;;4.97;1.40;;;12.80;99.90;;;;;;5096366;28;20416;-90
2021/07/14 00:45:47;;;;;;;4.13;1.40;;;12.90;99.90;;;;;;5082403;28;20575;-89
2021/07/14 00:48:16;;;;;;;3.00;1.40;;;13.00;99.90;;;;;;5057405;28;20451;-89
2021/07/14 00:50:44;;;;;;;3.50;1.15;;;13.00;99.90;;;;;;5070977;28;20521;-89
2021/07/14 00:53:11;;;;;;;2.05;1.33;;;13.00;99.90;;;;;;5074587;28;20472;-89
2021/07/14 00:55:38;;;;;;;1.58;1.27;;;13.00;99.90;;;;;;5077498;28;20401;-90
2021/07/14 00:58:07;;;;;;;1.50;1.10;;;13.00;99.90;;;;;;5083045;28;20408;-89
2021/07/14 01:00:34;;;;;;;1.95;1.30;;;12.90;99.90;;;;;;5087411;28;20763;-88
2021/07/14 01:03:02;;;;;;;2.97;1.50;;;12.90;99.90;;;;;;5078445;28;20424;-86
2021/07/14 01:05:35;;;;;;;1.98;1.48;;;12.90;99.90;;;;;;5085214;28;20416;-88
2021/07/14 01:08:13;;;;;;;2.50;1.35;;;12.80;99.90;;;;;;5076452;28;20393;-90
2021/07/14 01:10:49;;;;;;;1.63;1.35;;;12.80;99.90;;;;;;5103115;28;20756;-89
2021/07/14 01:13:24;;;;;;;2.58;1.13;;;12.70;99.90;;;;;;5081404;28;20918;-89
2021/07/14 01:16:02;;;;;;;2.30;1.30;;;12.70;99.90;;;;;;5092812;28;20787;-89
2021/07/14 01:19:01;;;;;;;1.17;1.00;;;12.60;99.90;;;;;;5072441;28;20424;-89
2021/07/14 01:21:40;;;;;;;0.90;0.70;;;12.60;99.90;;;;;;5073586;28;21117;-90
2021/07/14 01:24:15;;;;;;;0.93;0.60;;;12.60;99.90;;;;;;5069396;28;20429;-87
2021/07/14 01:26:54;;;;;;;1.33;0.60;;;12.60;99.90;;;;;;5074753;28;20382;-87
2021/07/14 01:29:23;;;;;;;1.98;0.60;;;12.60;99.90;;;;;;5071413;28;20429;-87
2021/07/14 01:31:53;;;;;;;1.00;0.68;;;12.60;99.90;;;;;;5087962;28;20375;-89
2021/07/14 01:34:26;;;;;;;0.47;0.47;;;12.60;99.90;;;;;;5081400;28;20401;-88
2021/07/14 01:36:54;;;;;;;1.92;0.57;;;12.50;99.90;;;;;;5075645;28;20390;-86
2021/07/14 01:39:22;;;;;;;1.55;0.68;;;12.50;99.90;;;;;;5085991;28;20451;-89
2021/07/14 01:41:52;;;;;;;1.37;0.63;;;12.50;99.90;;;;;;5076926;28;20445;-89
2021/07/14 01:44:27;;;;;;;1.25;0.60;;;12.30;99.90;;;;;;5095386;28;20443;-87
2021/07/14 01:46:58;;;;;;;1.85;0.80;;;12.30;99.90;;;;;;5075511;28;20409;-87
2021/07/14 01:49:29;;;;;;;0.90;0.70;;;12.30;99.90;;;;;;5083287;28;20853;-86
2021/07/14 01:52:18;;;;;;;1.40;0.87;;;12.30;99.90;;;;;;5078667;28;20557;-86
2021/07/14 01:54:48;;;;;;;1.95;0.85;;;12.20;99.90;;;;;;5074571;28;20459;-89
2021/07/14 01:57:17;;;;;;;1.05;0.85;;;12.10;99.90;;;;;;5073670;28;20394;-88
2021/07/14 01:59:45;;;;;;;1.30;0.70;;;12.20;99.90;;;;;;5089115;28;20370;-87
2021/07/14 02:02:15;;;;;;;1.55;0.73;;;12.10;99.90;;;;;;5079364;28;20405;-86
2021/07/14 02:04:44;;;;;;;1.95;0.90;;;12.10;99.90;;;;;;5074296;28;20432;-88
2021/07/14 02:07:43;;;;;;;0.90;0.73;;;12.10;99.90;;;;;;5064503;28;20395;-89
2021/07/14 02:10:11;;;;;;;1.70;0.85;;;12.20;99.90;;;;;;5107419;27;20401;-88
2021/07/14 02:12:40;;;;;;;2.00;0.70;;;12.10;99.90;;;;;;5069334;28;20409;-87
2021/07/14 02:15:11;;;;;;;1.50;0.60;;;12.10;99.90;;;;;;5042597;28;20413;-87
2021/07/14 02:18:10;;;;;;;2.00;0.95;;;12.00;99.90;;;;;;5075475;28;20390;-88
2021/07/14 02:20:38;;;;;;;1.80;0.70;;;12.00;99.90;;;;;;5049742;28;20451;-87
2021/07/14 02:23:08;;;;;;;3.17;1.25;;;12.00;99.90;;;;;;5065195;28;20382;-90
2021/07/14 02:25:36;;;;;;;1.38;1.02;;;12.00;99.90;;;;;;5071379;28;20798;-89
2021/07/14 02:28:04;;;;;;;3.60;2.63;;;12.00;99.90;;;;;;5068485;28;20396;-90
2021/07/14 02:30:31;;;;;;;1.33;0.95;;;12.00;99.90;;;;;;5077756;28;20426;-88
2021/07/14 02:33:04;;;;;;;2.90;1.00;;;12.00;99.90;;;;;;5072808;28;20381;-84
2021/07/14 02:35:35;;;;;;;1.45;0.90;;;12.00;99.90;;;;;;5072726;28;20389;-88
2021/07/14 02:38:30;;;;;;;2.90;1.05;;;12.00;99.90;;;;;;5078966;28;20481;-87
2021/07/14 02:41:12;;;;;;;3.17;1.20;;;12.00;99.90;;;;;;5061880;28;20398;-89
2021/07/14 02:43:47;;;;;;;2.00;1.08;;;12.00;99.90;;;;;;5067834;28;20398;-87
2021/07/14 02:46:26;;;;;;;2.50;1.10;;;12.10;99.90;;;;;;5043862;28;20409;-86
2021/07/14 02:49:13;;;;;;;5.15;1.23;;;12.10;99.90;;;;;;5042941;28;20401;-90
2021/07/14 02:51:45;;;;;;;1.55;1.10;;;12.10;99.90;;;;;;5062240;28;20876;-91
2021/07/14 02:54:23;;;;;;;31.42;22.50;;;12.00;99.90;;;;;;5052885;28;20417;-87
2021/07/14 02:56:59;;;;;;;46.58;32.92;;;11.80;99.90;;;;;;5024989;28;20822;-88
2021/07/14 02:59:29;;;;;;;167.00;118.00;;;11.70;99.90;;;;;;5050143;28;20401;-87
2021/07/14 03:01:58;;;;;;;2.97;2.33;;;11.60;99.90;;;;;;5056888;28;20427;-87
2021/07/14 03:04:38;;;;;;;15.02;13.75;;;11.40;99.90;;;;;;5031118;28;20487;-87
2021/07/14 03:07:09;;;;;;;1.70;1.60;;;11.30;99.90;;;;;;5050240;28;20406;-88
2021/07/14 03:09:39;;;;;;;2.35;1.10;;;11.30;99.90;;;;;;5053528;28;20746;-89
2021/07/14 03:12:16;;;;;;;1.45;1.20;;;11.20;99.90;;;;;;5031983;28;20420;-88
2021/07/14 03:14:53;;;;;;;2.40;1.10;;;11.20;99.90;;;;;;5047972;28;20474;-88
2021/07/14 03:17:20;;;;;;;2.70;1.25;;;11.20;99.90;;;;;;5030618;28;20400;-88
2021/07/14 03:19:52;;;;;;;7.07;6.25;;;11.10;99.90;;;;;;5064500;28;20459;-85
2021/07/14 03:22:24;;;;;;;34.28;20.60;;;11.10;99.90;;;;;;5045678;28;20495;-86
2021/07/14 03:25:01;;;;;;;143.85;106.03;;;11.10;99.90;;;;;;5044316;28;20495;-87
2021/07/14 03:27:35;;;;;;;51.20;45.07;;;11.20;99.90;;;;;;5020865;28;20409;-87
2021/07/14 03:30:20;;;;;;;3.75;2.92;;;11.20;99.90;;;;;;5029697;28;20399;-88
2021/07/14 03:32:57;;;;;;;3.03;2.00;;;11.20;99.90;;;;;;5034876;28;20407;-87
2021/07/14 03:35:31;;;;;;;2.20;1.85;;;11.20;99.90;;;;;;5051640;28;20544;-86
2021/07/14 03:38:03;;;;;;;3.42;1.90;;;11.30;99.90;;;;;;5030717;28;20445;-88
2021/07/14 03:40:34;;;;;;;3.83;2.10;;;11.40;99.90;;;;;;5039633;28;20961;-87
2021/07/14 03:43:04;;;;;;;3.20;2.00;;;11.50;99.90;;;;;;5042502;28;20413;-87
2021/07/14 03:45:34;;;;;;;4.38;2.13;;;11.50;99.90;;;;;;5085137;28;20775;-88
2021/07/14 03:48:01;;;;;;;3.88;2.20;;;11.60;99.90;;;;;;5082474;28;20873;-88
2021/07/14 03:50:31;;;;;;;3.38;2.17;;;11.60;99.90;;;;;;5071725;28;20378;-87
2021/07/14 03:53:02;;;;;;;2.92;2.20;;;11.70;99.90;;;;;;5069629;28;20479;-88
2021/07/14 03:55:29;;;;;;;3.47;2.45;;;11.70;99.90;;;;;;5072585;28;20888;-88
2021/07/14 03:57:56;;;;;;;3.55;2.65;;;11.70;99.90;;;;;;5070860;28;20430;-91
2021/07/14 04:00:24;;;;;;;2.83;2.05;;;11.80;99.90;;;;;;5075112;28;20393;-88
2021/07/14 04:02:51;;;;;;;5.60;2.50;;;11.80;99.90;;;;;;5074630;28;20406;-88
2021/07/14 04:05:19;;;;;;;3.30;2.03;;;11.80;99.90;;;;;;5077961;28;20410;-89
2021/07/14 04:07:48;;;;;;;2.53;2.17;;;11.80;99.90;;;;;;5068957;28;20494;-90
2021/07/14 04:10:15;;;;;;;2.78;1.95;;;11.90;99.90;;;;;;5067126;28;20378;-91
2021/07/14 04:12:44;;;;;;;2.67;2.00;;;11.90;99.90;;;;;;5073251;28;20429;-92
2021/07/14 04:15:12;;;;;;;2.35;2.15;;;12.00;99.90;;;;;;5076246;28;20421;-90
2021/07/14 04:17:56;;;;;;;2.25;2.00;;;12.00;99.90;;;;;;5085835;28;20397;-90
2021/07/14 04:20:23;;;;;;;34.55;29.55;;;12.00;99.90;;;;;;5098558;28;21301;-90
2021/07/14 04:22:58;;;;;;;104.03;86.13;;;11.90;99.90;;;;;;5071388;28;20486;-86
2021/07/14 04:25:29;;;;;;;3.30;2.97;;;11.90;99.90;;;;;;5067127;28;20436;-86
2021/07/14 04:28:03;;;;;;;40.97;30.13;;;11.80;99.90;;;;;;5074883;28;20379;-90
2021/07/14 04:30:30;;;;;;;129.90;94.05;;;11.80;99.90;;;;;;5071760;28;20389;-90
2021/07/14 04:32:58;;;;;;;17.90;13.93;;;11.80;99.90;;;;;;5069535;28;20392;-90
2021/07/14 04:35:25;;;;;;;54.20;39.83;;;11.80;99.90;;;;;;5065962;28;20404;-91
2021/07/14 04:37:52;;;;;;;8.30;6.07;;;11.80;99.90;;;;;;5071284;28;20481;-92
2021/07/14 04:40:22;;;;;;;4.40;2.85;;;11.80;99.90;;;;;;5072014;28;20391;-92
2021/07/14 04:42:54;;;;;;;6.72;2.58;;;11.80;99.90;;;;;;5071249;28;20823;-92
2021/07/14 04:45:26;;;;;;;4.38;2.58;;;11.90;99.90;;;;;;5071380;28;20468;-93
2021/07/14 04:47:57;;;;;;;4.05;3.38;;;11.90;99.90;;;;;;5072347;28;20460;-91
2021/07/14 04:50:27;;;;;;;2.42;1.95;;;11.90;99.90;;;;;;5067689;28;20760;-91
2021/07/14 04:52:55;;;;;;;3.08;2.42;;;11.90;99.90;;;;;;5070121;28;20436;-91
2021/07/14 04:55:26;;;;;;;3.58;2.75;;;11.80;99.90;;;;;;5068120;28;20398;-90
2021/07/14 04:58:03;;;;;;;4.03;3.40;;;11.80;99.90;;;;;;5068445;28;20398;-90
2021/07/14 05:00:33;;;;;;;3.50;3.08;;;11.80;99.90;;;;;;5071644;28;20721;-89
2021/07/14 05:03:00;;;;;;;3.63;2.55;;;11.80;99.90;;;;;;5074351;28;20397;-92
2021/07/14 05:05:32;;;;;;;6.22;3.70;;;11.70;99.90;;;;;;5084746;28;20891;-92
2021/07/14 05:08:04;;;;;;;4.60;3.00;;;11.70;99.90;;;;;;5086361;28;20420;-92
2021/07/14 05:10:52;;;;;;;2.60;2.33;;;11.70;99.90;;;;;;5092683;28;20395;-92
2021/07/14 05:13:23;;;;;;;3.67;3.38;;;11.70;99.90;;;;;;5081583;28;20439;-92
2021/07/14 05:15:54;;;;;;;3.78;2.92;;;11.70;99.90;;;;;;5068058;28;20954;-91
2021/07/14 05:18:36;;;;;;;4.28;3.65;;;11.60;99.90;;;;;;5083760;28;20408;-91
2021/07/14 05:21:14;;;;;;;3.92;3.33;;;11.60;99.90;;;;;;5094274;28;20384;-91
2021/07/14 05:23:45;;;;;;;5.20;2.93;;;11.60;99.90;;;;;;5085360;28;20392;-92
2021/07/14 05:26:38;;;;;;;5.47;3.15;;;11.60;99.90;;;;;;5081367;28;20883;-92
2021/07/14 05:29:17;;;;;;;3.72;3.00;;;11.60;99.90;;;;;;5053037;28;20376;-91
2021/07/14 05:31:44;;;;;;;4.82;4.40;;;11.50;99.90;;;;;;5074724;28;20392;-93
2021/07/14 05:34:12;;;;;;;6.70;4.32;;;11.50;99.90;;;;;;5088273;28;20377;-90
2021/07/14 05:36:42;;;;;;;5.28;3.75;;;11.60;99.90;;;;;;5087018;28;20477;-92
2021/07/14 05:39:11;;;;;;;3.67;2.88;;;11.50;99.90;;;;;;5082081;28;20381;-91
2021/07/14 05:41:38;;;;;;;9.80;8.80;;;11.50;99.90;;;;;;5097735;28;20375;-90
2021/07/14 05:44:05;;;;;;;3.00;2.67;;;11.50;99.90;;;;;;5100828;28;20415;-91
2021/07/14 05:46:40;;;;;;;12.27;10.27;;;11.60;99.90;;;;;;5084215;28;20381;-92
2021/07/14 05:49:12;;;;;;;28.38;25.67;;;11.60;99.90;;;;;;5090088;28;20760;-92
2021/07/14 05:51:45;;;;;;;5.15;3.20;;;11.60;99.90;;;;;;5097116;28;20880;-91
2021/07/14 05:54:17;;;;;;;4.10;3.00;;;11.60;99.90;;;;;;5099289;28;20377;-91
2021/07/14 05:56:49;;;;;;;4.63;3.40;;;11.60;99.90;;;;;;5084592;28;20397;-92
2021/07/14 05:59:17;;;;;;;6.23;3.80;;;11.60;99.90;;;;;;5070460;28;20423;-92
2021/07/14 06:01:46;;;;;;;3.92;2.80;;;11.60;99.90;;;;;;5073205;28;20456;-91
2021/07/14 06:04:13;;;;;;;5.13;2.72;;;11.60;99.90;;;;;;5083197;28;20405;-92
2021/07/14 06:06:43;;;;;;;4.07;2.40;;;11.70;99.90;;;;;;5082593;28;20427;-90
2021/07/14 06:09:12;;;;;;;5.90;3.45;;;11.70;99.90;;;;;;5077316;28;20888;-90
2021/07/14 06:11:41;;;;;;;4.95;3.67;;;11.70;99.90;;;;;;5081210;28;21541;-93
2021/07/14 06:14:32;;;;;;;5.65;3.75;;;11.80;99.90;;;;;;5080623;28;20371;-93
2021/07/14 06:16:59;;;;;;;4.90;3.15;;;11.70;99.90;;;;;;5079319;28;20435;-93
2021/07/14 06:19:29;;;;;;;3.97;2.80;;;11.70;99.90;;;;;;5078496;28;20383;-93
2021/07/14 06:21:56;;;;;;;5.00;2.92;;;11.70;99.90;;;;;;5060720;28;20405;-93
2021/07/14 06:24:23;;;;;;;3.05;2.63;;;11.70;99.90;;;;;;5064243;28;20394;-93
2021/07/14 06:26:57;;;;;;;2.97;2.28;;;11.70;99.90;;;;;;5103292;28;20381;-93
2021/07/14 06:29:24;;;;;;;4.45;2.55;;;11.80;99.90;;;;;;5100569;28;20381;-93
2021/07/14 06:31:53;;;;;;;2.63;2.20;;;11.80;99.90;;;;;;5095606;28;20472;-91
2021/07/14 06:34:21;;;;;;;3.22;2.35;;;11.80;99.90;;;;;;5098106;28;20404;-92
2021/07/14 06:36:51;;;;;;;4.00;1.98;;;11.80;99.90;;;;;;5093985;28;20391;-91
2021/07/14 06:39:18;;;;;;;4.00;2.30;;;11.80;99.90;;;;;;5062567;28;20894;-94
2021/07/14 06:41:46;;;;;;;3.22;2.92;;;11.80;99.90;;;;;;5094130;28;20388;-88
2021/07/14 06:44:19;;;;;;;2.60;2.40;;;11.80;99.90;;;;;;5078124;28;20408;-92
2021/07/14 06:46:48;;;;;;;3.15;2.67;;;11.80;99.90;;;;;;5097434;28;20386;-93
2021/07/14 06:49:21;;;;;;;4.70;2.47;;;11.70;99.90;;;;;;5089331;28;20939;-93
2021/07/14 06:51:48;;;;;;;3.38;2.15;;;11.70;99.90;;;;;;5086680;28;20416;-91
2021/07/14 06:54:19;;;;;;;2.78;1.98;;;11.60;99.90;;;;;;5093114;28;20387;-91
2021/07/14 06:56:46;;;;;;;2.58;2.10;;;11.60;99.90;;;;;;5096677;28;20384;-94
2021/07/14 06:59:13;;;;;;;2.78;2.08;;;11.60;99.90;;;;;;5095526;28;20388;-92
2021/07/14 07:01:44;;;;;;;2.40;1.90;;;11.60;99.90;;;;;;5092811;28;20453;-92
2021/07/14 07:04:11;;;;;;;2.60;1.85;;;11.70;99.90;;;;;;5077583;28;20963;-94
2021/07/14 07:06:38;;;;;;;1.92;1.50;;;11.80;99.90;;;;;;5093425;28;20423;-93
2021/07/14 07:09:08;;;;;;;3.03;1.75;;;11.80;99.90;;;;;;5092775;28;20364;-93
2021/07/14 07:11:38;;;;;;;1.98;1.60;;;11.80;99.90;;;;;;5092246;28;20727;-92
2021/07/14 07:14:05;;;;;;;3.67;3.38;;;11.80;99.90;;;;;;5053411;28;20386;-93
2021/07/14 07:16:33;;;;;;;10.32;2.70;;;11.80;99.90;;;;;;5074095;28;20374;-92
2021/07/14 07:19:01;;;;;;;2.38;1.10;;;11.80;99.90;;;;;;5057257;28;20400;-91
2021/07/14 07:21:28;;;;;;;2.22;1.23;;;11.80;99.90;;;;;;5082176;28;20361;-91
2021/07/14 07:23:56;;;;;;;2.42;1.40;;;11.90;99.90;;;;;;5068827;28;20415;-90
2021/07/14 07:26:23;;;;;;;3.25;1.83;;;11.80;99.90;;;;;;5052388;28;20737;-94
2021/07/14 07:28:57;;;;;;;1.77;1.63;;;11.90;99.90;;;;;;5091771;28;20414;-92
2021/07/14 07:31:25;;;;;;;1.95;1.40;;;11.90;99.90;;;;;;5074277;28;20411;-91
2021/07/14 07:33:52;;;;;;;1.52;1.25;;;11.90;99.90;;;;;;5079049;28;20378;-95
2021/07/14 07:36:19;;;;;;;1.30;1.20;;;11.90;99.90;;;;;;5088428;28;20388;-95
2021/07/14 07:38:46;;;;;;;1.40;1.20;;;11.90;99.90;;;;;;5075873;28;20877;-92
2021/07/14 07:41:16;;;;;;;1.67;1.33;;;11.90;99.90;;;;;;5072940;28;20405;-93
2021/07/14 07:43:42;;;;;;;1.40;1.20;;;11.80;99.90;;;;;;5072323;28;20458;-91
2021/07/14 07:46:16;;;;;;;1.40;1.30;;;11.80;99.90;;;;;;5059162;28;20401;-93
2021/07/14 07:48:47;;;;;;;3.10;1.70;;;11.70;99.90;;;;;;5075416;28;20738;-93
2021/07/14 07:51:14;;;;;;;1.63;1.53;;;11.60;99.90;;;;;;5057370;28;20490;-93
2021/07/14 07:53:41;;;;;;;2.88;2.58;;;11.70;99.90;;;;;;5056732;28;20385;-92
2021/07/14 07:56:08;;;;;;;3.67;2.15;;;11.70;99.90;;;;;;5052195;28;20392;-91
2021/07/14 07:58:35;;;;;;;3.58;2.20;;;11.60;99.90;;;;;;5069698;28;20472;-91
2021/07/14 08:01:05;;;;;;;3.83;2.60;;;11.70;99.90;;;;;;5051261;28;20386;-92
2021/07/14 08:03:32;;;;;;;4.68;3.00;;;11.70;99.90;;;;;;5048911;28;20899;-92
2021/07/14 08:05:59;;;;;;;4.20;2.90;;;11.70;99.90;;;;;;5049070;28;20418;-89
2021/07/14 08:08:27;;;;;;;2.33;2.08;;;11.80;99.90;;;;;;5032101;28;20464;-89
2021/07/14 08:10:56;;;;;;;2.28;2.08;;;11.90;99.90;;;;;;5028581;28;20394;-86
2021/07/14 08:13:26;;;;;;;2.47;2.15;;;11.90;99.90;;;;;;5046468;28;20429;-88
2021/07/14 08:15:55;;;;;;;3.42;2.60;;;12.00;99.90;;;;;;5070891;28;20425;-92
2021/07/14 08:18:24;;;;;;;2.97;2.37;;;12.00;99.90;;;;;;5037633;28;20391;-92
2021/07/14 08:20:52;;;;;;;4.88;2.47;;;12.00;99.90;;;;;;5053396;28;20376;-91
2021/07/14 08:23:20;;;;;;;4.25;2.53;;;12.00;99.90;;;;;;5019388;28;20430;-91
2021/07/14 08:25:51;;;;;;;3.20;2.58;;;12.10;99.90;;;;;;5036470;28;20429;-92
2021/07/14 08:28:21;;;;;;;3.78;2.60;;;12.00;99.90;;;;;;5020778;28;20391;-93
2021/07/14 08:30:49;;;;;;;3.80;2.63;;;12.00;99.90;;;;;;5054105;28;20390;-91
2021/07/14 08:33:16;;;;;;;3.85;2.30;;;12.00;99.90;;;;;;5075830;28;20374;-90
2021/07/14 08:35:43;;;;;;;1.75;1.65;;;12.00;99.90;;;;;;5056775;28;20388;-90
2021/07/14 08:38:12;;;;;;;3.95;2.35;;;12.00;99.90;;;;;;5049165;28;20457;-91
2021/07/14 08:40:44;;;;;;;5.05;3.17;;;12.00;99.90;;;;;;5076973;28;20389;-91
2021/07/14 08:43:15;;;;;;;6.60;4.28;;;12.00;99.90;;;;;;5057954;28;20729;-93
2021/07/14 08:45:45;;;;;;;4.50;3.83;;;11.90;99.90;;;;;;5087697;28;20408;-92
2021/07/14 08:48:16;;;;;;;6.23;4.23;;;11.90;99.90;;;;;;5095576;28;20436;-94
2021/07/14 08:50:44;;;;;;;7.60;3.33;;;11.90;99.90;;;;;;5096538;28;20376;-91
2021/07/14 08:53:20;;;;;;;5.25;3.08;;;11.90;99.90;;;;;;5088209;28;20475;-92
2021/07/14 08:55:49;;;;;;;5.55;2.90;;;12.00;99.90;;;;;;5078009;28;20382;-91
2021/07/14 08:58:22;;;;;;;8.63;4.75;;;12.10;99.90;;;;;;5081690;28;20435;-91
2021/07/14 09:00:55;;;;;;;4.70;2.90;;;12.20;99.90;;;;;;5088929;28;20384;-92
2021/07/14 09:03:23;;;;;;;8.98;3.70;;;12.20;99.90;;;;;;5082782;28;20384;-90
2021/07/14 09:05:51;;;;;;;8.07;3.60;;;12.20;99.90;;;;;;5062943;28;20402;-92
2021/07/14 09:08:19;;;;;;;4.90;3.20;;;12.20;99.90;;;;;;5076592;28;20382;-91
2021/07/14 09:10:47;;;;;;;4.40;3.20;;;12.10;99.90;;;;;;5059169;28;20394;-91
2021/07/14 09:13:16;;;;;;;5.20;3.53;;;12.10;99.90;;;;;;5087768;28;21024;-91
2021/07/14 09:15:49;;;;;;;5.13;3.38;;;12.10;99.90;;;;;;5086782;28;20392;-92
2021/07/14 09:18:28;;;;;;;12.48;10.25;;;12.10;99.90;;;;;;5093616;28;20829;-93
2021/07/14 09:20:56;;;;;;;5.15;3.50;;;12.10;99.90;;;;;;5094003;28;20453;-92
2021/07/14 09:23:28;;;;;;;4.70;2.63;;;12.00;99.90;;;;;;5087931;28;20384;-92
2021/07/14 09:25:59;;;;;;;2.22;1.63;;;12.10;99.90;;;;;;5098777;28;20400;-93
2021/07/14 09:28:34;;;;;;;3.25;1.70;;;12.10;99.90;;;;;;5098335;28;20372;-94
2021/07/14 09:31:07;;;;;;;3.25;1.90;;;12.20;99.90;;;;;;5078806;28;20390;-93
2021/07/14 09:33:36;;;;;;;3.37;1.70;;;12.30;99.90;;;;;;5097038;28;20429;-93
2021/07/14 09:36:06;;;;;;;3.70;1.77;;;12.30;99.90;;;;;;5095228;28;20872;-95
2021/07/14 09:38:37;;;;;;;3.65;1.75;;;12.30;99.90;;;;;;5098072;28;20399;-93
2021/07/14 09:41:06;;;;;;;3.47;2.93;;;12.40;99.90;;;;;;5084608;28;20435;-92
2021/07/14 09:43:37;;;;;;;3.65;3.22;;;12.40;99.90;;;;;;5077988;28;20495;-92
2021/07/14 09:46:10;;;;;;;4.57;1.73;;;12.30;99.90;;;;;;5086535;28;20871;-92
2021/07/14 09:48:43;;;;;;;3.63;3.22;;;12.30;99.90;;;;;;5063794;28;20405;-93
2021/07/14 09:51:16;;;;;;;4.32;3.13;;;12.30;99.90;;;;;;5071385;28;20458;-90
2021/07/14 09:53:48;;;;;;;2.60;2.40;;;12.30;99.90;;;;;;5063163;28;20805;-92
2021/07/14 09:56:27;;;;;;;2.50;2.30;;;12.20;99.90;;;;;;5074140;28;20447;-92
2021/07/14 09:59:19;;;;;;;2.40;1.60;;;12.20;99.90;;;;;;5060085;28;20465;-91
2021/07/14 10:01:48;;;;;;;2.60;1.40;;;12.20;99.90;;;;;;5069326;28;20401;-92
2021/07/14 10:04:36;;;;;;;3.05;2.22;;;12.30;99.90;;;;;;5072675;28;20866;-92
2021/07/14 10:07:23;;;;;;;7.93;3.97;;;12.40;99.90;;;;;;5062301;28;20446;-91
2021/07/14 10:09:51;;;;;;;2.70;1.40;;;12.40;99.90;;;;;;5077516;28;20451;-92
2021/07/14 10:12:39;;;;;;;11.50;8.50;;;12.40;99.90;;;;;;5081830;28;20393;-89
2021/07/14 10:15:14;;;;;;;148.02;113.90;;;12.30;99.90;;;;;;5077303;28;20406;-91
2021/07/14 10:17:50;;;;;;;29.65;21.90;;;12.30;99.90;;;;;;5080369;28;20439;-92
2021/07/14 10:20:32;;;;;;;20.15;15.50;;;12.20;99.90;;;;;;5077263;28;20437;-92
2021/07/14 10:23:17;;;;;;;5.32;3.28;;;12.20;99.90;;;;;;5076773;28;20414;-90
2021/07/14 10:25:46;;;;;;;4.40;2.50;;;12.20;99.90;;;;;;5079061;28;20438;-92
2021/07/14 10:28:22;;;;;;;6.65;4.75;;;12.20;99.90;;;;;;5051956;28;20411;-91
2021/07/14 10:30:51;;;;;;;17.45;12.02;;;12.20;99.90;;;;;;5066779;28;20387;-94
2021/07/14 10:33:22;;;;;;;15.40;10.98;;;12.20;99.90;;;;;;5071707;28;20507;-91
2021/07/14 10:35:52;;;;;;;12.70;8.27;;;12.10;99.90;;;;;;5082437;28;20412;-92
2021/07/14 10:38:23;;;;;;;8.02;6.18;;;12.10;99.90;;;;;;5075491;28;20433;-93
2021/07/14 10:40:55;;;;;;;21.25;18.45;;;12.10;99.90;;;;;;5080876;28;20386;-90
2021/07/14 10:43:26;;;;;;;17.40;14.77;;;12.00;99.90;;;;;;5075440;28;20402;-93
2021/07/14 10:45:55;;;;;;;11.43;9.35;;;12.00;99.90;;;;;;5095749;28;20411;-95
2021/07/14 10:48:24;;;;;;;10.93;7.55;;;11.90;99.90;;;;;;5096525;28;20439;-92
2021/07/14 10:50:54;;;;;;;16.23;12.38;;;11.90;99.90;;;;;;5092863;28;20388;-94
2021/07/14 10:53:22;;;;;;;5.00;2.70;;;11.80;99.90;;;;;;5078287;28;20489;-92
2021/07/14 10:55:53;;;;;;;14.27;9.93;;;11.70;99.90;;;;;;5074571;28;20391;-93
2021/07/14 10:58:22;;;;;;;7.03;3.90;;;11.60;99.90;;;;;;5074335;28;20410;-93
2021/07/14 11:00:50;;;;;;;4.35;3.00;;;11.60;99.90;;;;;;5076533;28;20411;-96
2021/07/14 11:03:38;;;;;;;5.55;3.72;;;11.70;99.90;;;;;;5071403;28;20485;-94
2021/07/14 11:06:10;;;;;;;9.68;6.55;;;11.70;99.90;;;;;;5088067;28;20436;-94
2021/07/14 11:08:43;;;;;;;5.65;3.80;;;11.70;99.90;;;;;;5064226;28;20380;-94
2021/07/14 11:11:23;;;;;;;7.40;4.60;;;11.70;99.90;;;;;;5094267;28;20388;-94
2021/07/14 11:14:10;;;;;;;2.87;1.97;;;11.70;99.90;;;;;;5092010;28;20374;-92
2021/07/14 11:16:39;;;;;;;2.97;1.50;;;11.80;99.90;;;;;;5085936;28;20385;-95
2021/07/14 11:19:07;;;;;;;1.92;1.30;;;11.80;99.90;;;;;;5089483;28;20377;-93
2021/07/14 11:21:54;;;;;;;4.18;1.60;;;11.80;99.90;;;;;;5092830;28;20385;-91
2021/07/14 11:24:42;;;;;;;1.98;1.17;;;11.80;99.90;;;;;;5096216;28;20414;-95
2021/07/14 11:27:28;;;;;;;3.28;1.45;;;11.90;99.90;;;;;;5087164;28;20370;-92
2021/07/14 11:30:16;;;;;;;3.33;1.50;;;11.90;99.90;;;;;;5100851;28;20473;-95
2021/07/14 11:32:52;;;;;;;2.97;1.20;;;11.90;99.90;;;;;;5125770;27;20381;-95
2021/07/14 11:35:20;;;;;;;3.60;1.13;;;11.90;99.90;;;;;;5095873;28;20380;-96
2021/07/14 11:38:02;;;;;;;2.50;1.40;;;11.90;99.90;;;;;;5078262;28;20392;-91
2021/07/14 11:40:43;;;;;;;2.17;1.40;;;11.90;99.90;;;;;;5087227;28;20399;-93
2021/07/14 11:43:33;;;;;;;3.63;1.80;;;11.80;99.90;;;;;;5085553;28;20407;-93
2021/07/14 11:46:07;;;;;;;2.70;1.63;;;11.90;99.90;;;;;;5068513;28;20494;-93
2021/07/14 11:48:36;;;;;;;5.45;1.70;;;11.90;99.90;;;;;;5076322;28;20388;-92
2021/07/14 11:51:29;;;;;;;3.67;1.98;;;11.90;99.90;;;;;;5083546;28;20764;-92
2021/07/14 11:53:59;;;;;;;3.35;1.60;;;11.80;99.90;;;;;;5091840;28;20444;-92
2021/07/14 11:56:45;;;;;;;5.47;2.30;;;11.80;99.90;;;;;;5079027;28;20394;-95
2021/07/14 11:59:21;;;;;;;3.75;1.90;;;11.70;99.90;;;;;;5068156;28;20893;-93
2021/07/14 12:01:51;;;;;;;3.55;1.98;;;11.70;99.90;;;;;;5083101;28;20399;-92
2021/07/14 12:04:23;;;;;;;3.15;1.83;;;11.60;99.90;;;;;;5084414;28;20516;-91
2021/07/14 12:07:00;;;;;;;4.43;1.77;;;11.50;99.90;;;;;;5079642;28;20390;-93
2021/07/14 12:09:29;;;;;;;3.87;1.70;;;11.50;99.90;;;;;;5057654;28;20434;-92
2021/07/14 12:12:27;;;;;;;3.88;2.10;;;11.50;99.90;;;;;;5066136;28;20384;-90
2021/07/14 12:14:55;;;;;;;3.90;2.20;;;11.40;99.90;;;;;;5110365;28;20389;-92
2021/07/14 12:17:28;;;;;;;3.63;2.10;;;11.40;99.90;;;;;;5081130;28;20479;-93
2021/07/14 12:19:58;;;;;;;4.28;1.98;;;11.30;99.90;;;;;;5079184;28;20462;-93
2021/07/14 12:22:31;;;;;;;6.78;5.30;;;11.30;99.90;;;;;;5099159;28;20881;-93
2021/07/14 12:25:03;;;;;;;5.43;3.63;;;11.10;99.90;;;;;;5071545;28;20413;-94
2021/07/14 12:27:35;;;;;;;5.70;4.50;;;11.00;99.90;;;;;;5074983;28;20394;-95
2021/07/14 12:30:08;;;;;;;5.72;3.33;;;11.00;99.90;;;;;;5077811;28;20394;-93
2021/07/14 12:32:49;;;;;;;6.43;3.30;;;11.00;99.90;;;;;;5100098;28;20412;-94
2021/07/14 12:35:29;;;;;;;4.07;2.92;;;11.00;99.90;;;;;;5065623;28;20484;-90
2021/07/14 12:38:07;;;;;;;5.47;2.58;;;11.00;99.90;;;;;;5064197;28;20391;-93
2021/07/14 12:40:35;;;;;;;4.53;2.50;;;11.00;99.90;;;;;;5081125;28;20379;-94
2021/07/14 12:43:05;;;;;;;3.83;2.53;;;11.00;99.90;;;;;;5077029;28;20456;-90
2021/07/14 12:45:38;;;;;;;3.65;2.70;;;10.90;99.90;;;;;;5067839;28;20499;-94
2021/07/14 12:48:17;;;;;;;6.45;3.63;;;10.90;99.90;;;;;;5072043;28;20403;-93
2021/07/14 12:50:46;;;;;;;7.72;4.00;;;10.80;99.90;;;;;;5070817;28;20389;-94
2021/07/14 12:53:18;;;;;;;8.50;4.68;;;10.70;99.90;;;;;;5066522;28;20451;-94
2021/07/14 12:55:46;;;;;;;5.20;3.55;;;10.70;99.90;;;;;;5093541;28;20384;-94
2021/07/14 12:58:20;;;;;;;7.90;3.40;;;10.70;99.90;;;;;;5075856;28;20505;-94
2021/07/14 13:00:50;;;;;;;5.32;3.42;;;10.60;99.90;;;;;;5073274;28;20396;-93
2021/07/14 13:03:26;;;;;;;4.60;3.22;;;10.60;99.90;;;;;;5073138;28;20402;-91
2021/07/14 13:05:54;;;;;;;4.47;3.30;;;10.60;99.90;;;;;;5088855;28;20416;-93
2021/07/14 13:08:28;;;;;;;6.03;3.85;;;10.50;99.90;;;;;;5067529;28;20412;-94
2021/07/14 13:10:59;;;;;;;4.47;3.33;;;10.40;99.90;;;;;;5080218;28;20393;-93
2021/07/14 13:13:27;;;;;;;5.03;2.97;;;10.30;99.90;;;;;;5091816;28;20400;-93
2021/07/14 13:15:57;;;;;;;6.30;2.97;;;10.30;99.90;;;;;;5080007;28;20485;-90
2021/07/14 13:18:41;;;;;;;4.10;2.60;;;10.20;99.90;;;;;;5060794;28;20403;-94